Time;durP1;ratioP1;P1;durP2;ratioP2;P2;SDS_P1;SDS_P2;PMS_P1;PMS_P2;Temp;Humidity;BMP_temperature;BMP_pressure;BME280_temperature;BME280_humidity;BME280_pressure;Samples;Min_cycle;Max_cycle;Signal;HPM_P1;HPM_P2
2021/03/31 00:01:25;;;;;;;11.87;8.97;;;;;9.60;101960.00;;;;9702423;30;20231;-76
2021/03/31 00:06:26;;;;;;;14.97;9.60;;;;;9.60;101962.00;;;;9688695;30;20228;-76
2021/03/31 00:11:27;;;;;;;14.43;8.80;;;;;9.50;101961.00;;;;9701640;30;20220;-76
2021/03/31 00:16:32;;;;;;;12.67;7.93;;;;;9.30;101951.00;;;;9688262;30;20318;-76
2021/03/31 00:21:33;;;;;;;10.97;8.47;;;;;9.20;101946.00;;;;9652023;30;20201;-76
2021/03/31 00:26:35;;;;;;;12.33;9.00;;;;;9.20;101939.00;;;;9652347;30;20282;-76
2021/03/31 00:31:36;;;;;;;13.10;9.37;;;;;9.10;101932.00;;;;9675199;30;20211;-76
2021/03/31 00:36:38;;;;;;;15.40;9.33;;;;;9.00;101931.00;;;;9702125;30;20208;-76
2021/03/31 00:41:40;;;;;;;15.93;9.70;;;;;9.00;101926.00;;;;9701746;30;20266;-76
2021/03/31 00:46:43;;;;;;;14.97;9.63;;;;;9.00;101924.00;;;;9679366;30;20242;-76
2021/03/31 00:51:44;;;;;;;14.07;10.23;;;;;8.90;101923.00;;;;9693693;30;20628;-76
2021/03/31 00:56:46;;;;;;;16.43;9.70;;;;;8.90;101913.00;;;;9679638;30;20211;-76
2021/03/31 01:01:48;;;;;;;18.63;11.83;;;;;8.80;101903.00;;;;9693815;30;20216;-76
2021/03/31 01:06:49;;;;;;;17.97;10.57;;;;;8.70;101898.00;;;;9673598;30;20237;-76
2021/03/31 01:11:58;;;;;;;17.23;11.23;;;;;8.70;101897.00;;;;9693191;30;20212;-76
2021/03/31 01:17:06;;;;;;;19.03;11.67;;;;;8.70;101885.00;;;;9659625;30;20279;-76
2021/03/31 01:22:43;;;;;;;16.57;11.80;;;;;8.60;101889.00;;;;9707010;30;20216;-76
2021/03/31 01:28:03;;;;;;;15.43;11.10;;;;;8.60;101879.00;;;;9691961;30;20259;-76
2021/03/31 01:33:31;;;;;;;21.67;12.63;;;;;8.50;101878.00;;;;9706280;30;20215;-76
2021/03/31 01:38:33;;;;;;;16.73;11.50;;;;;8.50;101872.00;;;;9676884;30;20243;-76
2021/03/31 01:43:35;;;;;;;22.93;12.10;;;;;8.40;101860.00;;;;9684038;30;20207;-76
2021/03/31 01:48:36;;;;;;;16.33;11.00;;;;;8.30;101860.00;;;;9692225;30;20235;-77
2021/03/31 01:53:39;;;;;;;18.53;11.17;;;;;8.30;101855.00;;;;9705446;30;20212;-76
2021/03/31 01:58:42;;;;;;;16.90;11.70;;;;;8.30;101851.00;;;;9690890;30;20216;-76
2021/03/31 02:03:51;;;;;;;21.13;12.17;;;;;8.30;101853.00;;;;9690958;30;20212;-76
2021/03/31 02:08:54;;;;;;;18.07;12.27;;;;;8.30;101847.00;;;;9691967;30;20232;-76
2021/03/31 02:13:57;;;;;;;15.53;11.57;;;;;8.30;101835.00;;;;9676256;30;20939;-76
2021/03/31 02:19:01;;;;;;;18.10;11.53;;;;;8.30;101836.00;;;;9676192;30;20231;-76
2021/03/31 02:24:04;;;;;;;14.47;11.17;;;;;8.20;101837.00;;;;9704493;30;20204;-76
2021/03/31 02:29:06;;;;;;;16.93;13.00;;;;;8.20;101826.00;;;;9704570;30;20286;-76
2021/03/31 02:34:08;;;;;;;16.13;12.10;;;;;8.10;101813.00;;;;9690272;30;20223;-76
2021/03/31 02:39:14;;;;;;;21.40;13.00;;;;;8.10;101810.00;;;;9675398;30;20824;-76
2021/03/31 02:44:17;;;;;;;16.80;11.73;;;;;8.10;101811.00;;;;9690070;30;20231;-76
2021/03/31 02:49:20;;;;;;;16.87;11.83;;;;;8.00;101806.00;;;;9675230;30;20232;-76
2021/03/31 02:54:23;;;;;;;16.20;11.60;;;;;8.00;101807.00;;;;9690393;30;20601;-76
2021/03/31 02:59:25;;;;;;;15.57;12.23;;;;;7.90;101805.00;;;;9699821;30;20270;-76
2021/03/31 03:04:27;;;;;;;16.83;10.70;;;;;7.90;101805.00;;;;9688647;30;20212;-75
2021/03/31 03:09:29;;;;;;;17.03;11.77;;;;;7.80;101796.00;;;;9689236;30;20214;-75
2021/03/31 03:14:32;;;;;;;16.43;10.73;;;;;7.90;101797.00;;;;9674553;30;20208;-75
2021/03/31 03:19:34;;;;;;;16.87;11.07;;;;;8.00;101794.00;;;;9703103;30;20278;-75
2021/03/31 03:24:37;;;;;;;16.13;11.10;;;;;7.90;101791.00;;;;9674136;30;20236;-75
2021/03/31 03:29:43;;;;;;;13.53;10.47;;;;;7.80;101795.00;;;;9689123;30;20605;-75
2021/03/31 03:34:46;;;;;;;15.87;11.57;;;;;7.70;101790.00;;;;9702941;30;20207;-75
2021/03/31 03:39:48;;;;;;;19.43;11.40;;;;;7.70;101791.00;;;;9688330;30;20223;-76
2021/03/31 03:44:49;;;;;;;16.23;11.30;;;;;7.60;101798.00;;;;9688180;30;20238;-76
2021/03/31 03:49:50;;;;;;;19.13;11.77;;;;;7.60;101798.00;;;;9688774;30;20215;-76
2021/03/31 03:54:54;;;;;;;20.40;12.53;;;;;7.60;101803.00;;;;9663267;30;20247;-76
2021/03/31 03:59:56;;;;;;;15.27;10.43;;;;;7.50;101805.00;;;;9688286;30;20264;-76
2021/03/31 04:04:57;;;;;;;16.57;11.10;;;;;7.40;101789.00;;;;9687940;30;20227;-76
2021/03/31 04:10:00;;;;;;;16.23;10.03;;;;;7.30;101794.00;;;;9702467;30;20257;-76
2021/03/31 04:15:04;;;;;;;17.53;12.47;;;;;7.30;101786.00;;;;9674280;30;20404;-76
2021/03/31 04:20:18;;;;;;;15.23;10.43;;;;;7.40;101782.00;;;;9678953;30;20239;-76
2021/03/31 04:25:22;;;;;;;16.20;11.53;;;;;7.30;101780.00;;;;9694296;30;20286;-76
2021/03/31 04:30:24;;;;;;;18.93;11.30;;;;;7.30;101780.00;;;;9708799;30;20208;-76
2021/03/31 04:35:26;;;;;;;19.00;12.63;;;;;7.20;101788.00;;;;9693405;30;20935;-76
2021/03/31 04:40:27;;;;;;;19.53;12.07;;;;;7.20;101783.00;;;;9708409;30;20211;-76
2021/03/31 04:45:28;;;;;;;15.87;11.50;;;;;7.10;101780.00;;;;9693531;30;20234;-76
2021/03/31 04:50:30;;;;;;;18.93;11.63;;;;;7.10;101783.00;;;;9693983;30;20239;-76
2021/03/31 04:55:32;;;;;;;20.43;11.73;;;;;7.00;101784.00;;;;9693335;30;20619;-76
2021/03/31 05:00:33;;;;;;;18.50;11.20;;;;;7.00;101774.00;;;;9693063;30;20215;-76
2021/03/31 05:05:35;;;;;;;18.30;11.53;;;;;6.90;101767.00;;;;9671470;30;20228;-76
2021/03/31 05:10:37;;;;;;;14.90;10.03;;;;;6.90;101771.00;;;;9668075;30;20573;-76
2021/03/31 05:15:39;;;;;;;16.93;10.63;;;;;6.90;101762.00;;;;9675224;30;20223;-76
2021/03/31 05:20:41;;;;;;;13.63;10.50;;;;;6.80;101770.00;;;;9691125;30;20208;-76
2021/03/31 05:25:42;;;;;;;15.20;11.07;;;;;6.80;101775.00;;;;9705615;30;20313;-76
2021/03/31 05:30:44;;;;;;;13.53;9.87;;;;;6.80;101755.00;;;;9706421;30;20234;-76
2021/03/31 05:35:46;;;;;;;13.07;9.07;;;;;6.80;101766.00;;;;9706001;30;20302;-76
2021/03/31 05:40:48;;;;;;;13.80;9.33;;;;;7.00;101758.00;;;;9691518;30;20212;-76
2021/03/31 05:45:52;;;;;;;21.37;9.73;;;;;7.20;101755.00;;;;9705014;30;20236;-76
2021/03/31 05:50:54;;;;;;;21.57;10.57;;;;;7.50;101749.00;;;;9670730;30;20228;-76
2021/03/31 05:55:56;;;;;;;16.63;9.63;;;;;7.70;101754.00;;;;9668544;30;20529;-76
2021/03/31 06:00:58;;;;;;;14.80;8.37;;;;;8.20;101752.00;;;;9690892;30;20284;-76
2021/03/31 06:06:00;;;;;;;15.87;7.40;;;;;8.70;101751.00;;;;9690845;30;20222;-76
2021/03/31 06:11:02;;;;;;;13.73;8.07;;;;;9.20;101756.00;;;;9690717;30;20216;-76
2021/03/31 06:16:04;;;;;;;15.67;6.30;;;;;9.70;101760.00;;;;9705291;30;20672;-76
2021/03/31 06:21:05;;;;;;;9.53;5.90;;;;;10.20;101744.00;;;;9689845;30;20235;-76
2021/03/31 06:26:27;;;;;;;21.27;6.20;;;;;10.70;101754.00;;;;9690438;30;20901;-76
2021/03/31 06:31:34;;;;;;;16.83;7.10;;;;;11.10;101758.00;;;;9656479;30;20216;-76
2021/03/31 06:36:38;;;;;;;12.67;6.83;;;;;11.50;101748.00;;;;9704289;30;20978;-76
2021/03/31 06:41:49;;;;;;;9.87;6.70;;;;;12.10;101748.00;;;;9673687;30;20211;-76
2021/03/31 06:47:03;;;;;;;10.30;6.10;;;;;12.80;101754.00;;;;9685901;30;20256;-76
2021/03/31 06:52:10;;;;;;;9.20;5.40;;;;;13.60;101752.00;;;;9672553;30;20244;-76
2021/03/31 06:57:14;;;;;;;13.33;7.47;;;;;14.30;101742.00;;;;9696003;30;20214;-76
2021/03/31 07:02:16;;;;;;;15.60;5.47;;;;;15.00;101738.00;;;;9688811;30;20218;-76
2021/03/31 07:07:29;;;;;;;11.60;5.83;;;;;15.70;101742.00;;;;9674599;30;20282;-76
2021/03/31 07:12:37;;;;;;;13.33;5.37;;;;;16.30;101749.00;;;;9688533;30;20584;-76
2021/03/31 07:17:55;;;;;;;12.00;4.47;;;;;16.80;101760.00;;;;9674772;30;20227;-76
2021/03/31 07:23:00;;;;;;;8.47;5.20;;;;;17.20;101754.00;;;;9688519;30;20203;-77
2021/03/31 07:28:02;;;;;;;10.38;5.25;;;;;17.60;101755.00;;;;9688481;30;20337;-77
2021/03/31 07:33:20;;;;;;;16.77;5.90;;;;;18.00;101755.00;;;;9688200;30;20226;-77
2021/03/31 07:38:23;;;;;;;10.65;5.70;;;;;18.30;101753.00;;;;9685902;30;20219;-77
2021/03/31 07:43:34;;;;;;;14.18;5.32;;;;;18.80;101755.00;;;;9688234;30;20212;-77
2021/03/31 07:48:37;;;;;;;11.90;5.80;;;;;19.20;101756.00;;;;9690109;30;20235;-76
2021/03/31 07:53:43;;;;;;;11.82;5.82;;;;;19.50;101764.00;;;;9684501;30;20216;-77
2021/03/31 07:59:05;;;;;;;13.30;4.90;;;;;19.80;101767.00;;;;9686621;30;20214;-76
2021/03/31 08:04:09;;;;;;;12.65;5.95;;;;;20.20;101754.00;;;;9664660;30;20719;-76
2021/03/31 08:09:18;;;;;;;17.50;7.22;;;;;20.60;101756.00;;;;9684480;30;20227;-77
2021/03/31 08:14:26;;;;;;;14.20;7.25;;;;;21.00;101755.00;;;;9686100;30;20215;-76
2021/03/31 08:19:33;;;;;;;15.77;8.63;;;;;21.30;101745.00;;;;9686282;30;20215;-76
2021/03/31 08:25:02;;;;;;;19.25;8.73;;;;;21.80;101755.00;;;;9683410;30;20254;-76
2021/03/31 08:30:03;;;;;;;24.35;9.88;;;;;22.00;101748.00;;;;9680113;30;20231;-76
2021/03/31 08:35:05;;;;;;;21.08;10.13;;;;;22.40;101750.00;;;;9700427;30;20638;-76
2021/03/31 08:40:07;;;;;;;21.17;11.43;;;;;22.70;101744.00;;;;9680436;30;20212;-74
2021/03/31 08:45:10;;;;;;;27.67;13.50;;;;;23.20;101744.00;;;;9657430;30;20222;-75
2021/03/31 08:50:12;;;;;;;29.55;11.60;;;;;23.50;101741.00;;;;9686297;30;20583;-76
2021/03/31 08:55:14;;;;;;;25.40;11.55;;;;;24.00;101749.00;;;;9671975;30;20208;-75
2021/03/31 09:00:16;;;;;;;25.77;11.82;;;;;24.40;101750.00;;;;9691584;30;20901;-75
2021/03/31 09:05:17;;;;;;;26.52;11.90;;;;;24.70;101743.00;;;;9690342;30;20215;-76
2021/03/31 09:10:20;;;;;;;21.17;10.98;;;;;25.00;101737.00;;;;9682923;30;20265;-76
2021/03/31 09:15:23;;;;;;;20.85;12.85;;;;;25.30;101741.00;;;;9690549;30;20577;-76
2021/03/31 09:20:24;;;;;;;20.63;12.38;;;;;25.60;101724.00;;;;9705043;30;20205;-75
2021/03/31 09:25:26;;;;;;;42.58;13.93;;;;;26.00;101728.00;;;;9699205;30;20700;-75
2021/03/31 09:30:52;;;;;;;21.02;13.10;;;;;26.20;101732.00;;;;9691441;30;20677;-76
2021/03/31 09:36:09;;;;;;;21.48;12.88;;;;;26.50;101719.00;;;;9692214;30;20746;-75
2021/03/31 09:41:12;;;;;;;26.42;14.38;;;;;26.60;101715.00;;;;9688769;30;20218;-76
2021/03/31 09:46:13;;;;;;;25.27;15.15;;;;;26.90;101718.00;;;;9662893;30;20201;-75
2021/03/31 09:51:15;;;;;;;30.23;18.25;;;;;27.00;101720.00;;;;9678565;30;20208;-75
2021/03/31 09:56:18;;;;;;;26.65;17.17;;;;;27.10;101715.00;;;;9659309;30;20216;-75
2021/03/31 10:01:20;;;;;;;34.30;20.25;;;;;27.30;101715.00;;;;9692970;30;20208;-75
2021/03/31 10:06:26;;;;;;;32.25;15.57;;;;;27.60;101717.00;;;;9699983;30;20196;-75
2021/03/31 10:11:30;;;;;;;32.92;18.80;;;;;27.70;101711.00;;;;9676494;30;20351;-76
2021/03/31 10:16:43;;;;;;;37.55;20.67;;;;;27.90;101709.00;;;;9681865;30;20220;-74
2021/03/31 10:21:46;;;;;;;32.42;20.15;;;;;28.10;101703.00;;;;9650867;30;20270;-75
2021/03/31 10:26:49;;;;;;;35.47;18.38;;;;;28.10;101704.00;;;;9654795;30;20235;-75
2021/03/31 10:32:03;;;;;;;35.63;19.52;;;;;28.30;101694.00;;;;9672327;30;20670;-76
2021/03/31 10:37:24;;;;;;;34.20;18.70;;;;;28.50;101687.00;;;;9704734;30;20302;-76
2021/03/31 10:48:21;;;;;;;28.38;17.88;;;;;29.00;101684.00;;;;9703497;30;20264;-76
2021/03/31 10:53:36;;;;;;;28.77;17.20;;;;;29.00;101676.00;;;;9653750;30;20635;-76
2021/03/31 10:58:41;;;;;;;27.25;16.17;;;;;29.20;101674.00;;;;9666787;30;20231;-76
2021/03/31 11:03:43;;;;;;;28.50;16.38;;;;;29.30;101678.00;;;;9659329;30;20211;-76
2021/03/31 11:08:44;;;;;;;27.75;16.15;;;;;29.30;101673.00;;;;9691124;30;20736;-76
2021/03/31 11:13:46;;;;;;;26.60;15.30;;;;;29.40;101673.00;;;;9662640;30;20248;-76
2021/03/31 11:19:01;;;;;;;17.58;11.95;;;;;29.30;101669.00;;;;9655375;30;20235;-76
2021/03/31 11:29:23;;;;;;;27.27;16.10;;;;;29.70;101660.00;;;;9688043;30;20224;-75
2021/03/31 11:34:24;;;;;;;29.25;16.45;;;;;29.70;101659.00;;;;9689401;30;20215;-76
2021/03/31 11:39:26;;;;;;;26.08;15.45;;;;;30.00;101651.00;;;;9677710;30;20712;-76
2021/03/31 11:44:27;;;;;;;31.77;17.30;;;;;30.00;101652.00;;;;9673492;30;20218;-76
2021/03/31 11:49:28;;;;;;;29.05;17.15;;;;;29.70;101640.00;;;;9672726;30;20285;-76
2021/03/31 11:54:29;;;;;;;29.23;16.90;;;;;29.70;101634.00;;;;9673025;30;20273;-76
2021/03/31 11:59:34;;;;;;;26.85;16.10;;;;;30.10;101620.00;;;;9659468;30;20281;-76
2021/03/31 12:04:35;;;;;;;28.45;16.70;;;;;30.20;101622.00;;;;9688111;30;20298;-76
2021/03/31 12:09:40;;;;;;;30.65;17.35;;;;;30.20;101617.00;;;;9687280;30;20581;-75
2021/03/31 12:14:42;;;;;;;34.13;19.75;;;;;29.80;101617.00;;;;9688393;30;20213;-76
2021/03/31 12:19:43;;;;;;;33.58;19.98;;;;;29.80;101609.00;;;;9688967;30;20693;-76
2021/03/31 12:24:45;;;;;;;29.08;18.48;;;;;29.90;101615.00;;;;9652057;30;20306;-76
2021/03/31 12:29:47;;;;;;;30.13;19.70;;;;;30.00;101605.00;;;;9654427;30;20226;-76
2021/03/31 12:34:48;;;;;;;33.50;18.77;;;;;30.40;101614.00;;;;9686769;30;20286;-76
2021/03/31 12:39:51;;;;;;;36.22;19.70;;;;;30.30;101603.00;;;;9674849;30;20669;-76
2021/03/31 12:44:52;;;;;;;32.78;20.75;;;;;30.20;101596.00;;;;9681779;30;20267;-76
2021/03/31 12:49:54;;;;;;;34.45;20.50;;;;;30.30;101589.00;;;;9691858;30;20744;-76
2021/03/31 12:55:02;;;;;;;34.95;20.42;;;;;30.40;101583.00;;;;9692968;30;20306;-76
2021/03/31 13:00:07;;;;;;;30.70;18.85;;;;;30.60;101581.00;;;;9679153;30;20230;-77
2021/03/31 13:05:29;;;;;;;31.45;17.83;;;;;30.00;101572.00;;;;9680902;30;20404;-76
2021/03/31 13:10:31;;;;;;;32.88;18.27;;;;;30.00;101565.00;;;;9692721;30;20223;-76
2021/03/31 13:26:30;;;;;;;38.95;19.58;;;;;30.70;101554.00;;;;9658635;30;20223;-76
2021/03/31 13:31:55;;;;;;;28.27;17.63;;;;;30.50;101541.00;;;;9658616;30;20271;-76
2021/03/31 13:37:11;;;;;;;31.92;16.33;;;;;30.40;101542.00;;;;9682109;30;20297;-77
2021/03/31 13:42:13;;;;;;;31.42;17.92;;;;;30.80;101533.00;;;;9677162;30;20226;-76
2021/03/31 13:47:21;;;;;;;28.30;17.55;;;;;31.30;101532.00;;;;9705499;30;20731;-76
2021/03/31 13:52:30;;;;;;;24.25;16.15;;;;;31.40;101522.00;;;;9663780;30;20270;-76
2021/03/31 13:57:37;;;;;;;28.50;15.70;;;;;31.90;101525.00;;;;9705492;30;20245;-77
2021/03/31 14:02:44;;;;;;;27.88;17.02;;;;;33.00;101519.00;;;;9676977;30;20271;-77
2021/03/31 14:08:05;;;;;;;23.63;14.45;;;;;34.80;101513.00;;;;9690751;30;20219;-76
2021/03/31 14:13:26;;;;;;;23.25;13.38;;;;;35.60;101506.00;;;;9678628;30;20211;-76
2021/03/31 14:18:29;;;;;;;18.20;10.35;;;;;35.80;101503.00;;;;9691760;30;20223;-77
2021/03/31 14:23:31;;;;;;;21.38;10.75;;;;;35.30;101499.00;;;;9662413;30;20682;-76
2021/03/31 14:28:32;;;;;;;13.95;9.43;;;;;35.50;101493.00;;;;9675586;30;20235;-77
2021/03/31 14:33:37;;;;;;;14.57;8.27;;;;;36.30;101488.00;;;;9676591;30;20219;-76
2021/03/31 14:38:58;;;;;;;12.93;8.43;;;;;37.00;101489.00;;;;9677752;30;20926;-76
2021/03/31 14:44:20;;;;;;;13.40;8.00;;;;;37.20;101487.00;;;;9689369;30;20229;-76
2021/03/31 14:49:23;;;;;;;11.38;6.75;;;;;35.70;101475.00;;;;9690327;30;20302;-77
2021/03/31 15:00:07;;;;;;;9.57;6.68;;;;;38.90;101471.00;;;;9674414;30;20231;-76
2021/03/31 15:05:09;;;;;;;9.55;6.20;;;;;38.10;101472.00;;;;9688553;30;20576;-77
2021/03/31 15:10:11;;;;;;;9.15;6.15;;;;;36.50;101473.00;;;;9688291;30;20234;-76
2021/03/31 15:15:13;;;;;;;16.20;6.45;;;;;37.50;101454.00;;;;9674213;30;20239;-77
2021/03/31 15:26:22;;;;;;;7.03;5.15;;;;;34.20;101472.00;;;;9653326;30;20236;-76
2021/03/31 15:31:28;;;;;;;6.82;4.80;;;;;32.70;101465.00;;;;9653703;30;20532;-77
2021/03/31 15:36:37;;;;;;;10.68;5.43;;;;;32.10;101458.00;;;;9652205;30;20718;-77
2021/03/31 15:41:39;;;;;;;9.40;5.47;;;;;30.50;101464.00;;;;9683530;30;20211;-76
2021/03/31 15:46:54;;;;;;;10.38;5.90;;;;;29.80;101453.00;;;;9688494;30;20302;-76
2021/03/31 15:52:01;;;;;;;9.93;5.47;;;;;29.60;101453.00;;;;9660694;30;20211;-76
2021/03/31 15:57:07;;;;;;;9.07;5.80;;;;;29.00;101447.00;;;;9687676;30;20912;-76
2021/03/31 16:02:14;;;;;;;7.97;4.90;;;;;27.50;101454.00;;;;9701974;30;20239;-76
2021/03/31 16:07:33;;;;;;;11.65;5.70;;;;;27.20;101454.00;;;;9687258;30;20624;-76
2021/03/31 16:12:40;;;;;;;9.45;5.55;;;;;26.70;101447.00;;;;9673410;30;20212;-76
2021/03/31 16:17:41;;;;;;;7.53;5.05;;;;;26.40;101453.00;;;;9694480;30;20274;-76
2021/03/31 16:22:48;;;;;;;12.80;5.60;;;;;26.10;101454.00;;;;9694767;30;20284;-76
2021/03/31 16:27:59;;;;;;;9.70;5.63;;;;;25.60;101449.00;;;;9695402;30;20232;-76
2021/03/31 16:33:05;;;;;;;13.88;5.97;;;;;25.00;101442.00;;;;9694408;30;20212;-76
2021/03/31 16:38:13;;;;;;;8.30;5.05;;;;;24.60;101441.00;;;;9693970;30;20296;-76
2021/03/31 16:43:20;;;;;;;8.55;5.53;;;;;24.40;101443.00;;;;9688750;30;20348;-76
2021/03/31 16:48:26;;;;;;;9.75;6.10;;;;;24.10;101437.00;;;;9704135;30;20270;-76
2021/03/31 16:53:32;;;;;;;10.85;6.15;;;;;23.90;101444.00;;;;9649603;30;20212;-76
2021/03/31 16:58:38;;;;;;;14.05;6.05;;;;;23.60;101437.00;;;;9689303;30;20715;-75
2021/03/31 17:03:45;;;;;;;10.70;6.43;;;;;23.40;101447.00;;;;9678693;30;20569;-76
2021/03/31 17:08:46;;;;;;;10.07;5.63;;;;;23.20;101442.00;;;;9693215;30;20203;-75
2021/03/31 17:13:53;;;;;;;10.82;6.35;;;;;23.00;101447.00;;;;9676775;30;20556;-75
2021/03/31 17:18:59;;;;;;;9.70;5.97;;;;;22.90;101452.00;;;;9693984;30;20994;-75
2021/03/31 17:24:07;;;;;;;10.70;5.45;;;;;22.60;101448.00;;;;9692118;30;20262;-76
2021/03/31 17:29:08;;;;;;;14.20;5.95;;;;;22.30;101446.00;;;;9681082;30;20689;-74
2021/03/31 17:34:15;;;;;;;10.13;5.43;;;;;22.00;101446.00;;;;9690573;30;20372;-74
2021/03/31 17:39:16;;;;;;;8.98;5.50;;;;;21.80;101445.00;;;;9686496;30;20700;-75
2021/03/31 17:44:22;;;;;;;12.65;6.65;;;;;21.40;101441.00;;;;9680284;30;20221;-76
2021/03/31 17:49:29;;;;;;;11.93;5.72;;;;;21.00;101442.00;;;;9706714;30;20216;-75
2021/03/31 17:54:30;;;;;;;10.40;5.75;;;;;20.60;101438.00;;;;9691551;30;20270;-75
2021/03/31 17:59:34;;;;;;;10.10;5.68;;;;;20.20;101440.00;;;;9691106;30;20224;-77
2021/03/31 18:04:40;;;;;;;12.63;5.70;;;;;19.90;101439.00;;;;9691269;30;20224;-76
2021/03/31 18:09:46;;;;;;;13.70;6.60;;;;;19.50;101450.00;;;;9677224;30;20548;-76
2021/03/31 18:14:53;;;;;;;11.70;5.72;;;;;19.20;101463.00;;;;9690495;30;20216;-76
2021/03/31 18:19:55;;;;;;;11.73;5.63;;;;;18.90;101451.00;;;;9705389;30;20216;-76
2021/03/31 18:25:04;;;;;;;11.40;5.68;;;;;18.70;101455.00;;;;9704600;30;20274;-76
2021/03/31 18:30:10;;;;;;;13.68;6.40;;;;;18.40;101456.00;;;;9690319;30;20199;-75
2021/03/31 18:35:17;;;;;;;14.40;6.17;;;;;18.10;101465.00;;;;9661057;30;20200;-76
2021/03/31 18:45:41;;;;;;;13.40;6.17;;;;;17.70;101462.00;;;;9675857;30;20215;-75
2021/03/31 18:50:49;;;;;;;14.47;6.30;;;;;17.40;101463.00;;;;9688607;30;20298;-75
2021/03/31 18:55:56;;;;;;;13.03;6.53;;;;;17.20;101459.00;;;;9674772;30;20290;-76
2021/03/31 19:00:58;;;;;;;11.03;6.13;;;;;17.00;101462.00;;;;9689194;30;20270;-75
2021/03/31 19:06:05;;;;;;;9.17;5.80;;;;;16.80;101469.00;;;;9683549;30;20215;-75
2021/03/31 19:11:12;;;;;;;16.90;9.80;;;;;16.70;101462.00;;;;9693132;30;20201;-77
2021/03/31 19:16:18;;;;;;;16.73;8.93;;;;;16.50;101466.00;;;;9666102;30;20219;-76
2021/03/31 19:21:20;;;;;;;14.13;7.63;;;;;16.40;101465.00;;;;9653537;30;20219;-76
2021/03/31 19:26:21;;;;;;;17.70;8.30;;;;;16.30;101470.00;;;;9653776;30;20232;-76
2021/03/31 19:31:28;;;;;;;13.20;6.67;;;;;16.10;101472.00;;;;9709657;30;20617;-76
2021/03/31 19:36:29;;;;;;;19.03;7.40;;;;;16.00;101474.00;;;;9684024;30;20209;-76
2021/03/31 19:41:37;;;;;;;19.07;7.60;;;;;15.90;101477.00;;;;9681228;30;20901;-76
2021/03/31 19:46:44;;;;;;;20.20;7.80;;;;;15.70;101477.00;;;;9687839;30;20203;-76
2021/03/31 19:51:53;;;;;;;10.33;6.00;;;;;15.50;101481.00;;;;9675549;30;20208;-76
2021/03/31 19:56:54;;;;;;;11.80;7.20;;;;;15.30;101485.00;;;;9662271;30;20220;-76
2021/03/31 20:02:02;;;;;;;14.77;6.77;;;;;15.20;101481.00;;;;9664853;30;20684;-76
2021/03/31 20:07:13;;;;;;;19.70;7.30;;;;;15.00;101476.00;;;;9679959;30;20211;-76
2021/03/31 20:12:19;;;;;;;16.00;7.73;;;;;14.90;101478.00;;;;9665881;30;20224;-75
2021/03/31 20:17:26;;;;;;;18.37;7.97;;;;;14.80;101473.00;;;;9674347;30;20298;-75
2021/03/31 20:22:32;;;;;;;15.23;7.00;;;;;14.70;101481.00;;;;9675801;30;20200;-75
2021/03/31 20:27:39;;;;;;;19.90;8.10;;;;;14.60;101474.00;;;;9691073;30;20220;-76
2021/03/31 20:32:59;;;;;;;16.80;8.83;;;;;14.50;101478.00;;;;9675900;30;20263;-76
2021/03/31 20:38:14;;;;;;;21.03;13.13;;;;;14.50;101482.00;;;;9674110;30;20280;-76
2021/03/31 20:43:18;;;;;;;23.70;11.73;;;;;14.40;101480.00;;;;9684701;30;20204;-76
2021/03/31 20:48:25;;;;;;;17.53;9.03;;;;;14.30;101483.00;;;;9671724;30;20262;-76
2021/03/31 20:53:32;;;;;;;17.10;8.77;;;;;14.20;101495.00;;;;9649912;30;20269;-76
2021/03/31 20:58:39;;;;;;;17.07;9.40;;;;;14.10;101493.00;;;;9675587;30;20278;-76
2021/03/31 21:03:45;;;;;;;15.63;9.17;;;;;14.00;101495.00;;;;9680119;30;20221;-76
2021/03/31 21:08:51;;;;;;;20.40;9.90;;;;;13.90;101495.00;;;;9650295;30;20263;-76
2021/03/31 21:13:58;;;;;;;13.37;9.10;;;;;13.80;101503.00;;;;9678988;30;20207;-76
2021/03/31 21:19:07;;;;;;;20.43;10.07;;;;;13.70;101503.00;;;;9682636;30;20242;-76
2021/03/31 21:24:13;;;;;;;18.23;10.77;;;;;13.80;101508.00;;;;9672646;30;20267;-76
2021/03/31 21:29:19;;;;;;;25.07;10.97;;;;;13.70;101510.00;;;;9686349;30;20254;-76
2021/03/31 21:34:26;;;;;;;20.90;11.57;;;;;13.70;101502.00;;;;9677466;30;20208;-76
2021/03/31 21:39:33;;;;;;;17.13;11.00;;;;;13.60;101501.00;;;;9721545;30;20224;-76
2021/03/31 21:44:40;;;;;;;18.50;10.60;;;;;13.60;101512.00;;;;9705653;30;20203;-76
2021/03/31 21:49:46;;;;;;;17.97;10.00;;;;;13.50;101509.00;;;;9706559;30;20260;-76
2021/03/31 21:54:47;;;;;;;17.67;10.87;;;;;13.30;101512.00;;;;9697449;30;20224;-76
2021/03/31 21:59:49;;;;;;;18.37;10.20;;;;;13.20;101515.00;;;;9684616;30;20219;-76
2021/03/31 22:04:50;;;;;;;20.47;11.17;;;;;13.10;101515.00;;;;9691840;30;20212;-76
2021/03/31 22:09:51;;;;;;;19.07;10.13;;;;;13.00;101518.00;;;;9705538;30;20207;-76
2021/03/31 22:14:53;;;;;;;13.07;9.67;;;;;13.00;101516.00;;;;9691972;30;20247;-76
2021/03/31 22:19:57;;;;;;;18.37;10.77;;;;;12.90;101521.00;;;;9677017;30;20226;-76
2021/03/31 22:24:58;;;;;;;21.43;11.47;;;;;12.80;101513.00;;;;9691023;30;20227;-76
2021/03/31 22:29:59;;;;;;;21.63;11.50;;;;;12.80;101523.00;;;;9705367;30;20206;-77
2021/03/31 22:35:11;;;;;;;19.57;11.90;;;;;12.80;101515.00;;;;9677082;30;20200;-76
2021/03/31 22:40:48;;;;;;;25.87;13.30;;;;;12.90;101519.00;;;;9668772;30;20275;-76
2021/03/31 22:45:50;;;;;;;20.97;12.63;;;;;13.00;101516.00;;;;9573008;30;20215;-76
2021/03/31 22:50:58;;;;;;;20.40;12.13;;;;;13.00;101514.00;;;;9654988;30;20243;-76
2021/03/31 22:56:01;;;;;;;25.20;13.73;;;;;12.90;101522.00;;;;9669664;30;20188;-76
2021/03/31 23:01:08;;;;;;;21.50;12.83;;;;;13.00;101523.00;;;;9689967;30;20695;-76
2021/03/31 23:06:10;;;;;;;25.00;14.33;;;;;12.90;101521.00;;;;9681080;30;20209;-75
2021/03/31 23:11:11;;;;;;;20.67;13.93;;;;;12.80;101519.00;;;;9653837;30;20219;-75
2021/03/31 23:16:12;;;;;;;21.93;13.80;;;;;12.70;101522.00;;;;9653815;30;20235;-75
2021/03/31 23:21:14;;;;;;;22.23;12.97;;;;;12.70;101524.00;;;;9653847;30;20325;-75
2021/03/31 23:26:15;;;;;;;24.37;13.43;;;;;12.60;101520.00;;;;9672147;30;20219;-75
2021/03/31 23:31:17;;;;;;;21.03;13.07;;;;;12.50;101520.00;;;;9688865;30;20207;-75
2021/03/31 23:36:18;;;;;;;20.37;12.93;;;;;12.50;101515.00;;;;9675775;30;20571;-75
2021/03/31 23:41:20;;;;;;;16.67;11.73;;;;;12.50;101507.00;;;;9653375;30;20215;-75
2021/03/31 23:46:22;;;;;;;23.33;12.77;;;;;12.50;101503.00;;;;9653205;30;20204;-75
2021/03/31 23:51:23;;;;;;;20.67;12.07;;;;;12.50;101502.00;;;;9667551;30;20303;-75
2021/03/31 23:56:25;;;;;;;22.10;12.27;;;;;12.50;101499.00;;;;9653361;30;20220;-76
